sensor_id;sensor_type;location;lat;lon;timestamp;temperature;humidity
8882;DHT22;4477;48.736;9.176;2023-06-10T02:52:01;26.30;46.20
8882;DHT22;4477;48.736;9.176;2023-06-10T02:54:28;12.20;99.90
8882;DHT22;4477;48.736;9.176;2023-06-10T02:56:55;11.80;99.90
8882;DHT22;4477;48.736;9.176;2023-06-10T02:59:22;11.70;99.90
8882;DHT22;4477;48.736;9.176;2023-06-10T03:01:49;11.60;99.90
8882;DHT22;4477;48.736;9.176;2023-06-10T03:04:15;11.60;99.90
8882;DHT22;4477;48.736;9.176;2023-06-10T03:06:45;11.50;99.90
8882;DHT22;4477;48.736;9.176;2023-06-10T03:09:12;11.50;99.90
8882;DHT22;4477;48.736;9.176;2023-06-10T03:11:40;11.40;99.90
8882;DHT22;4477;48.736;9.176;2023-06-10T03:14:07;11.30;99.90
8882;DHT22;4477;48.736;9.176;2023-06-10T03:16:33;11.30;99.90
8882;DHT22;4477;48.736;9.176;2023-06-10T03:19:00;11.20;99.90
8882;DHT22;4477;48.736;9.176;2023-06-10T03:21:27;11.20;99.90
8882;DHT22;4477;48.736;9.176;2023-06-10T03:23:55;11.30;99.90
8882;DHT22;4477;48.736;9.176;2023-06-10T03:26:22;11.20;99.90
8882;DHT22;4477;48.736;9.176;2023-06-10T03:28:49;11.20;99.90
8882;DHT22;4477;48.736;9.176;2023-06-10T03:31:16;11.30;99.90
8882;DHT22;4477;48.736;9.176;2023-06-10T03:33:43;11.30;99.90
8882;DHT22;4477;48.736;9.176;2023-06-10T03:36:10;11.30;99.90
8882;DHT22;4477;48.736;9.176;2023-06-10T03:38:36;11.30;99.90
8882;DHT22;4477;48.736;9.176;2023-06-10T03:41:05;11.30;99.90
8882;DHT22;4477;48.736;9.176;2023-06-10T03:43:31;11.30;99.90
8882;DHT22;4477;48.736;9.176;2023-06-10T03:45:59;11.40;99.90
8882;DHT22;4477;48.736;9.176;2023-06-10T03:48:26;11.50;99.90
8882;DHT22;4477;48.736;9.176;2023-06-10T03:50:52;11.60;99.90
8882;DHT22;4477;48.736;9.176;2023-06-10T03:53:19;11.70;99.90
8882;DHT22;4477;48.736;9.176;2023-06-10T03:55:46;11.70;99.90
8882;DHT22;4477;48.736;9.176;2023-06-10T03:58:15;11.70;99.90
8882;DHT22;4477;48.736;9.176;2023-06-10T04:00:43;11.80;99.90
8882;DHT22;4477;48.736;9.176;2023-06-10T04:03:11;11.90;99.90
8882;DHT22;4477;48.736;9.176;2023-06-10T04:05:40;11.90;99.90
8882;DHT22;4477;48.736;9.176;2023-06-10T04:08:07;12.00;99.90
8882;DHT22;4477;48.736;9.176;2023-06-10T04:10:34;12.10;99.90
8882;DHT22;4477;48.736;9.176;2023-06-10T04:13:00;12.20;99.90
8882;DHT22;4477;48.736;9.176;2023-06-10T04:15:30;12.30;99.90
8882;DHT22;4477;48.736;9.176;2023-06-10T04:17:58;12.40;99.90
8882;DHT22;4477;48.736;9.176;2023-06-10T04:20:26;12.50;99.90
8882;DHT22;4477;48.736;9.176;2023-06-10T04:22:53;12.60;99.90
8882;DHT22;4477;48.736;9.176;2023-06-10T04:25:20;12.80;99.90
8882;DHT22;4477;48.736;9.176;2023-06-10T04:27:47;12.90;99.90
8882;DHT22;4477;48.736;9.176;2023-06-10T04:30:14;13.00;99.90
8882;DHT22;4477;48.736;9.176;2023-06-10T04:32:42;13.20;99.90
8882;DHT22;4477;48.736;9.176;2023-06-10T04:35:11;13.40;99.90
8882;DHT22;4477;48.736;9.176;2023-06-10T04:37:39;13.50;99.90
8882;DHT22;4477;48.736;9.176;2023-06-10T04:40:07;13.70;99.90
8882;DHT22;4477;48.736;9.176;2023-06-10T04:42:34;14.00;99.90
8882;DHT22;4477;48.736;9.176;2023-06-10T04:45:01;14.30;99.90
8882;DHT22;4477;48.736;9.176;2023-06-10T04:47:29;14.60;99.90
8882;DHT22;4477;48.736;9.176;2023-06-10T04:50:00;15.00;99.90
8882;DHT22;4477;48.736;9.176;2023-06-10T04:52:27;15.60;99.90
8882;DHT22;4477;48.736;9.176;2023-06-10T04:54:54;16.20;99.90
8882;DHT22;4477;48.736;9.176;2023-06-10T04:57:21;16.40;99.90
8882;DHT22;4477;48.736;9.176;2023-06-10T04:59:48;16.70;99.90
8882;DHT22;4477;48.736;9.176;2023-06-10T05:04:42;17.10;99.90
8882;DHT22;4477;48.736;9.176;2023-06-10T05:07:10;18.00;97.50
8882;DHT22;4477;48.736;9.176;2023-06-10T05:09:37;18.40;95.50
8882;DHT22;4477;48.736;9.176;2023-06-10T05:12:04;18.80;94.10
8882;DHT22;4477;48.736;9.176;2023-06-10T05:14:33;19.10;92.00
8882;DHT22;4477;48.736;9.176;2023-06-10T05:17:00;19.40;90.90
8882;DHT22;4477;48.736;9.176;2023-06-10T05:19:27;19.60;89.80
8882;DHT22;4477;48.736;9.176;2023-06-10T05:21:55;19.70;89.50
8882;DHT22;4477;48.736;9.176;2023-06-10T05:24:23;20.10;87.60
8882;DHT22;4477;48.736;9.176;2023-06-10T05:26:50;20.40;85.60
8882;DHT22;4477;48.736;9.176;2023-06-10T05:29:17;20.80;84.20
8882;DHT22;4477;48.736;9.176;2023-06-10T05:31:44;21.20;82.50
8882;DHT22;4477;48.736;9.176;2023-06-10T05:34:11;21.30;79.10
8882;DHT22;4477;48.736;9.176;2023-06-10T05:36:37;21.50;78.70
8882;DHT22;4477;48.736;9.176;2023-06-10T05:39:04;21.80;77.00
8882;DHT22;4477;48.736;9.176;2023-06-10T05:41:33;22.00;75.60
8882;DHT22;4477;48.736;9.176;2023-06-10T05:44:00;22.20;75.10
8882;DHT22;4477;48.736;9.176;2023-06-10T05:46:27;22.50;74.00
8882;DHT22;4477;48.736;9.176;2023-06-10T05:48:54;22.70;72.80
8882;DHT22;4477;48.736;9.176;2023-06-10T05:51:20;22.90;71.10
8882;DHT22;4477;48.736;9.176;2023-06-10T05:53:47;23.10;71.70
8882;DHT22;4477;48.736;9.176;2023-06-10T05:56:15;23.40;70.10
8882;DHT22;4477;48.736;9.176;2023-06-10T05:58:44;23.90;68.60
8882;DHT22;4477;48.736;9.176;2023-06-10T06:01:11;23.80;68.20
8882;DHT22;4477;48.736;9.176;2023-06-10T06:03:41;24.00;66.80
8882;DHT22;4477;48.736;9.176;2023-06-10T06:06:19;24.30;65.90
8882;DHT22;4477;48.736;9.176;2023-06-10T06:09:03;24.60;64.00
8882;DHT22;4477;48.736;9.176;2023-06-10T06:16:43;25.20;62.70
8882;DHT22;4477;48.736;9.176;2023-06-10T06:19:10;25.40;61.20
8882;DHT22;4477;48.736;9.176;2023-06-10T06:21:37;25.60;60.60
8882;DHT22;4477;48.736;9.176;2023-06-10T06:24:04;25.40;59.90
8882;DHT22;4477;48.736;9.176;2023-06-10T06:26:31;25.30;59.90
8882;DHT22;4477;48.736;9.176;2023-06-10T06:28:58;25.40;60.60
8882;DHT22;4477;48.736;9.176;2023-06-10T06:31:25;25.90;59.70
8882;DHT22;4477;48.736;9.176;2023-06-10T06:33:53;26.50;58.90
8882;DHT22;4477;48.736;9.176;2023-06-10T06:36:20;26.70;57.60
8882;DHT22;4477;48.736;9.176;2023-06-10T06:38:46;26.70;56.90
8882;DHT22;4477;48.736;9.176;2023-06-10T06:41:13;26.30;56.90
8882;DHT22;4477;48.736;9.176;2023-06-10T06:43:40;26.40;57.10
8882;DHT22;4477;48.736;9.176;2023-06-10T06:46:08;26.20;57.10
8882;DHT22;4477;48.736;9.176;2023-06-10T06:48:35;26.00;58.20
8882;DHT22;4477;48.736;9.176;2023-06-10T06:51:03;26.30;58.30
8882;DHT22;4477;48.736;9.176;2023-06-10T06:53:30;26.40;57.70
8882;DHT22;4477;48.736;9.176;2023-06-10T06:55:57;26.40;58.20
8882;DHT22;4477;48.736;9.176;2023-06-10T06:58:23;26.50;56.60
8882;DHT22;4477;48.736;9.176;2023-06-10T07:00:50;26.70;57.10
8882;DHT22;4477;48.736;9.176;2023-06-10T07:03:17;27.10;57.40
8882;DHT22;4477;48.736;9.176;2023-06-10T07:05:44;27.30;54.20
8882;DHT22;4477;48.736;9.176;2023-06-10T07:08:12;27.30;57.30
8882;DHT22;4477;48.736;9.176;2023-06-10T07:10:39;27.30;57.40
8882;DHT22;4477;48.736;9.176;2023-06-10T07:13:06;27.40;56.80
8882;DHT22;4477;48.736;9.176;2023-06-10T07:15:33;27.40;56.60
8882;DHT22;4477;48.736;9.176;2023-06-10T07:17:59;27.30;58.20
8882;DHT22;4477;48.736;9.176;2023-06-10T07:20:26;27.40;56.00
8882;DHT22;4477;48.736;9.176;2023-06-10T07:22:53;27.10;56.80
8882;DHT22;4477;48.736;9.176;2023-06-10T07:25:21;27.10;56.00
8882;DHT22;4477;48.736;9.176;2023-06-10T07:27:48;27.10;55.40
8882;DHT22;4477;48.736;9.176;2023-06-10T07:30:15;27.20;56.20
8882;DHT22;4477;48.736;9.176;2023-06-10T07:32:42;26.70;57.80
8882;DHT22;4477;48.736;9.176;2023-06-10T07:35:10;26.10;58.10
8882;DHT22;4477;48.736;9.176;2023-06-10T07:37:37;26.20;57.90
8882;DHT22;4477;48.736;9.176;2023-06-10T07:40:04;26.30;57.60
8882;DHT22;4477;48.736;9.176;2023-06-10T07:42:35;26.90;57.10
8882;DHT22;4477;48.736;9.176;2023-06-10T07:45:02;26.50;57.30
8882;DHT22;4477;48.736;9.176;2023-06-10T07:47:34;26.90;56.50
8882;DHT22;4477;48.736;9.176;2023-06-10T07:50:01;27.00;55.50
8882;DHT22;4477;48.736;9.176;2023-06-10T07:52:28;26.90;57.10
8882;DHT22;4477;48.736;9.176;2023-06-10T07:54:55;27.20;57.80
8882;DHT22;4477;48.736;9.176;2023-06-10T07:57:22;26.90;56.00
8882;DHT22;4477;48.736;9.176;2023-06-10T07:59:50;27.00;56.00
8882;DHT22;4477;48.736;9.176;2023-06-10T08:02:17;26.90;55.10
8882;DHT22;4477;48.736;9.176;2023-06-10T08:04:43;26.30;56.70
8882;DHT22;4477;48.736;9.176;2023-06-10T08:07:10;26.30;57.50
8882;DHT22;4477;48.736;9.176;2023-06-10T08:09:37;26.90;56.50
8882;DHT22;4477;48.736;9.176;2023-06-10T08:12:05;27.50;56.10
8882;DHT22;4477;48.736;9.176;2023-06-10T08:14:32;27.30;54.50
8882;DHT22;4477;48.736;9.176;2023-06-10T08:17:00;27.60;56.80
8882;DHT22;4477;48.736;9.176;2023-06-10T08:19:27;28.10;54.30
8882;DHT22;4477;48.736;9.176;2023-06-10T08:21:54;28.20;54.80
8882;DHT22;4477;48.736;9.176;2023-06-10T08:24:20;28.20;54.90
8882;DHT22;4477;48.736;9.176;2023-06-10T08:26:47;28.50;54.60
8882;DHT22;4477;48.736;9.176;2023-06-10T08:29:14;28.80;54.50
8882;DHT22;4477;48.736;9.176;2023-06-10T08:31:42;29.10;54.30
8882;DHT22;4477;48.736;9.176;2023-06-10T08:34:11;29.00;50.50
8882;DHT22;4477;48.736;9.176;2023-06-10T08:36:38;28.50;52.80
8882;DHT22;4477;48.736;9.176;2023-06-10T08:39:04;28.70;54.50
8882;DHT22;4477;48.736;9.176;2023-06-10T08:41:35;29.00;52.70
8882;DHT22;4477;48.736;9.176;2023-06-10T08:44:08;28.90;53.60
8882;DHT22;4477;48.736;9.176;2023-06-10T08:46:36;29.20;51.80
8882;DHT22;4477;48.736;9.176;2023-06-10T08:49:05;29.30;53.00
8882;DHT22;4477;48.736;9.176;2023-06-10T08:51:35;29.50;54.10
8882;DHT22;4477;48.736;9.176;2023-06-10T08:54:05;29.60;51.70
8882;DHT22;4477;48.736;9.176;2023-06-10T08:56:39;29.70;53.00
8882;DHT22;4477;48.736;9.176;2023-06-10T08:59:06;30.20;52.10
8882;DHT22;4477;48.736;9.176;2023-06-10T09:01:33;30.50;51.50
8882;DHT22;4477;48.736;9.176;2023-06-10T09:04:01;30.90;48.40
8882;DHT22;4477;48.736;9.176;2023-06-10T09:06:28;30.80;49.70
8882;DHT22;4477;48.736;9.176;2023-06-10T09:08:57;30.70;48.30
8882;DHT22;4477;48.736;9.176;2023-06-10T09:11:25;30.70;51.60
8882;DHT22;4477;48.736;9.176;2023-06-10T09:13:52;30.40;49.00
8882;DHT22;4477;48.736;9.176;2023-06-10T09:16:19;29.20;50.60
8882;DHT22;4477;48.736;9.176;2023-06-10T09:18:46;28.20;53.10
8882;DHT22;4477;48.736;9.176;2023-06-10T09:21:13;28.50;51.40
8882;DHT22;4477;48.736;9.176;2023-06-10T09:23:39;28.60;51.60
8882;DHT22;4477;48.736;9.176;2023-06-10T09:26:09;28.50;51.80
8882;DHT22;4477;48.736;9.176;2023-06-10T09:28:37;28.90;50.70
8882;DHT22;4477;48.736;9.176;2023-06-10T09:31:06;29.10;51.10
8882;DHT22;4477;48.736;9.176;2023-06-10T09:33:37;28.80;50.50
8882;DHT22;4477;48.736;9.176;2023-06-10T09:36:04;28.70;52.40
8882;DHT22;4477;48.736;9.176;2023-06-10T09:38:31;29.20;51.80
8882;DHT22;4477;48.736;9.176;2023-06-10T09:40:59;29.80;48.90
8882;DHT22;4477;48.736;9.176;2023-06-10T09:43:39;29.50;50.30
8882;DHT22;4477;48.736;9.176;2023-06-10T09:46:11;28.90;51.90
8882;DHT22;4477;48.736;9.176;2023-06-10T09:51:10;28.20;52.00
8882;DHT22;4477;48.736;9.176;2023-06-10T09:53:37;27.60;54.10
8882;DHT22;4477;48.736;9.176;2023-06-10T09:56:04;28.60;52.70
8882;DHT22;4477;48.736;9.176;2023-06-10T09:58:37;29.30;51.20
8882;DHT22;4477;48.736;9.176;2023-06-10T10:01:05;29.90;50.80
8882;DHT22;4477;48.736;9.176;2023-06-10T10:03:32;30.70;51.90
8882;DHT22;4477;48.736;9.176;2023-06-10T10:05:59;31.30;46.40
8882;DHT22;4477;48.736;9.176;2023-06-10T10:08:26;31.00;48.70
8882;DHT22;4477;48.736;9.176;2023-06-10T10:10:53;31.40;45.60
8882;DHT22;4477;48.736;9.176;2023-06-10T10:13:20;31.90;45.70
8882;DHT22;4477;48.736;9.176;2023-06-10T10:15:49;31.30;43.90
8882;DHT22;4477;48.736;9.176;2023-06-10T10:18:17;30.40;49.00
8882;DHT22;4477;48.736;9.176;2023-06-10T10:20:51;31.00;49.20
8882;DHT22;4477;48.736;9.176;2023-06-10T10:23:28;32.10;46.10
8882;DHT22;4477;48.736;9.176;2023-06-10T10:25:57;32.90;46.10
8882;DHT22;4477;48.736;9.176;2023-06-10T10:28:33;33.90;42.00
8882;DHT22;4477;48.736;9.176;2023-06-10T10:31:10;34.00;40.70
8882;DHT22;4477;48.736;9.176;2023-06-10T10:33:45;34.30;40.30
8882;DHT22;4477;48.736;9.176;2023-06-10T10:36:15;34.90;43.40
8882;DHT22;4477;48.736;9.176;2023-06-10T10:38:43;34.80;39.20
8882;DHT22;4477;48.736;9.176;2023-06-10T10:41:12;34.30;40.10
8882;DHT22;4477;48.736;9.176;2023-06-10T10:43:39;34.20;42.00
8882;DHT22;4477;48.736;9.176;2023-06-10T10:46:12;34.10;40.40
8882;DHT22;4477;48.736;9.176;2023-06-10T10:48:39;34.20;40.10
8882;DHT22;4477;48.736;9.176;2023-06-10T10:51:06;34.20;37.60
8882;DHT22;4477;48.736;9.176;2023-06-10T10:53:33;34.20;39.30
8882;DHT22;4477;48.736;9.176;2023-06-10T10:56:05;33.30;39.80
8882;DHT22;4477;48.736;9.176;2023-06-10T10:58:32;33.50;39.40
8882;DHT22;4477;48.736;9.176;2023-06-10T11:00:59;33.70;39.80
8882;DHT22;4477;48.736;9.176;2023-06-10T11:03:29;33.10;38.90
8882;DHT22;4477;48.736;9.176;2023-06-10T11:05:57;32.80;43.10
8882;DHT22;4477;48.736;9.176;2023-06-10T11:08:47;33.40;45.00
8882;DHT22;4477;48.736;9.176;2023-06-10T11:11:20;34.60;40.70
8882;DHT22;4477;48.736;9.176;2023-06-10T11:13:58;35.20;39.00
8882;DHT22;4477;48.736;9.176;2023-06-10T11:16:27;35.00;37.70
8882;DHT22;4477;48.736;9.176;2023-06-10T11:18:56;34.90;39.40
8882;DHT22;4477;48.736;9.176;2023-06-10T11:21:23;34.80;38.50
8882;DHT22;4477;48.736;9.176;2023-06-10T11:23:51;35.00;39.00
8882;DHT22;4477;48.736;9.176;2023-06-10T11:26:30;34.10;37.50
8882;DHT22;4477;48.736;9.176;2023-06-10T11:29:07;33.10;39.60
8882;DHT22;4477;48.736;9.176;2023-06-10T11:31:42;32.40;40.10
8882;DHT22;4477;48.736;9.176;2023-06-10T11:34:10;32.00;42.20
8882;DHT22;4477;48.736;9.176;2023-06-10T11:36:39;32.40;45.00
8882;DHT22;4477;48.736;9.176;2023-06-10T11:39:11;33.30;40.90
8882;DHT22;4477;48.736;9.176;2023-06-10T11:41:39;34.00;37.90
8882;DHT22;4477;48.736;9.176;2023-06-10T11:44:08;33.80;37.70
8882;DHT22;4477;48.736;9.176;2023-06-10T11:46:36;32.70;39.40
8882;DHT22;4477;48.736;9.176;2023-06-10T11:49:05;31.60;43.30
8882;DHT22;4477;48.736;9.176;2023-06-10T11:51:35;30.90;43.50
8882;DHT22;4477;48.736;9.176;2023-06-10T11:54:02;30.10;44.70
8882;DHT22;4477;48.736;9.176;2023-06-10T11:56:31;29.60;45.10
8882;DHT22;4477;48.736;9.176;2023-06-10T11:58:59;29.00;47.90
8882;DHT22;4477;48.736;9.176;2023-06-10T12:01:30;28.50;48.50
8882;DHT22;4477;48.736;9.176;2023-06-10T12:03:58;29.40;49.10
8882;DHT22;4477;48.736;9.176;2023-06-10T12:06:26;31.10;45.50
8882;DHT22;4477;48.736;9.176;2023-06-10T12:08:55;32.10;42.70
8882;DHT22;4477;48.736;9.176;2023-06-10T12:11:22;32.60;40.50
8882;DHT22;4477;48.736;9.176;2023-06-10T12:13:50;32.70;39.40
8882;DHT22;4477;48.736;9.176;2023-06-10T12:16:17;32.40;41.80
8882;DHT22;4477;48.736;9.176;2023-06-10T12:18:46;32.40;41.80
8882;DHT22;4477;48.736;9.176;2023-06-10T12:21:18;32.50;40.10
8882;DHT22;4477;48.736;9.176;2023-06-10T12:24:06;32.60;39.80
8882;DHT22;4477;48.736;9.176;2023-06-10T12:26:38;33.40;39.80
8882;DHT22;4477;48.736;9.176;2023-06-10T12:29:19;34.90;37.00
8882;DHT22;4477;48.736;9.176;2023-06-10T12:31:56;35.70;36.60
8882;DHT22;4477;48.736;9.176;2023-06-10T12:34:32;36.80;38.60
8882;DHT22;4477;48.736;9.176;2023-06-10T12:36:59;37.30;31.40
8882;DHT22;4477;48.736;9.176;2023-06-10T12:39:27;36.00;33.90
8882;DHT22;4477;48.736;9.176;2023-06-10T12:41:55;34.20;36.40
8882;DHT22;4477;48.736;9.176;2023-06-10T12:44:32;33.50;40.50
8882;DHT22;4477;48.736;9.176;2023-06-10T12:46:59;34.30;40.10
8882;DHT22;4477;48.736;9.176;2023-06-10T12:49:27;34.60;36.20
8882;DHT22;4477;48.736;9.176;2023-06-10T12:51:54;35.20;38.70
8882;DHT22;4477;48.736;9.176;2023-06-10T12:54:21;36.30;36.10
8882;DHT22;4477;48.736;9.176;2023-06-10T12:56:50;36.80;38.50
8882;DHT22;4477;48.736;9.176;2023-06-10T12:59:16;37.70;34.20
8882;DHT22;4477;48.736;9.176;2023-06-10T13:01:43;37.80;32.30
8882;DHT22;4477;48.736;9.176;2023-06-10T13:04:10;37.80;32.70
8882;DHT22;4477;48.736;9.176;2023-06-10T13:06:38;37.60;32.50
8882;DHT22;4477;48.736;9.176;2023-06-10T13:09:07;35.90;32.60
8882;DHT22;4477;48.736;9.176;2023-06-10T13:11:34;35.00;38.70
8882;DHT22;4477;48.736;9.176;2023-06-10T13:14:04;36.00;36.10
8882;DHT22;4477;48.736;9.176;2023-06-10T13:16:32;37.20;33.00
8882;DHT22;4477;48.736;9.176;2023-06-10T13:18:59;38.60;30.10
8882;DHT22;4477;48.736;9.176;2023-06-10T13:21:28;38.90;29.70
8882;DHT22;4477;48.736;9.176;2023-06-10T13:23:55;39.60;30.70
8882;DHT22;4477;48.736;9.176;2023-06-10T13:26:21;40.20;28.30
8882;DHT22;4477;48.736;9.176;2023-06-10T13:28:48;40.00;29.60
8882;DHT22;4477;48.736;9.176;2023-06-10T13:31:16;38.60;29.50
8882;DHT22;4477;48.736;9.176;2023-06-10T13:33:43;37.40;31.90
8882;DHT22;4477;48.736;9.176;2023-06-10T13:36:10;37.80;33.20
8882;DHT22;4477;48.736;9.176;2023-06-10T13:38:37;38.80;31.30
8882;DHT22;4477;48.736;9.176;2023-06-10T13:41:04;37.70;32.20
8882;DHT22;4477;48.736;9.176;2023-06-10T13:43:32;35.30;34.10
8882;DHT22;4477;48.736;9.176;2023-06-10T13:45:58;33.50;38.00
8882;DHT22;4477;48.736;9.176;2023-06-10T13:48:27;34.10;39.20
8882;DHT22;4477;48.736;9.176;2023-06-10T13:50:53;36.40;34.80
8882;DHT22;4477;48.736;9.176;2023-06-10T13:53:20;37.60;31.20
8882;DHT22;4477;48.736;9.176;2023-06-10T13:55:47;38.10;31.10
8882;DHT22;4477;48.736;9.176;2023-06-10T13:58:14;37.30;31.10
8882;DHT22;4477;48.736;9.176;2023-06-10T14:00:41;35.90;34.20
8882;DHT22;4477;48.736;9.176;2023-06-10T14:03:08;34.20;36.00
8882;DHT22;4477;48.736;9.176;2023-06-10T14:05:36;33.20;37.80
8882;DHT22;4477;48.736;9.176;2023-06-10T14:08:03;32.50;39.50
8882;DHT22;4477;48.736;9.176;2023-06-10T14:10:30;34.40;37.40
8882;DHT22;4477;48.736;9.176;2023-06-10T14:12:57;36.60;32.80
8882;DHT22;4477;48.736;9.176;2023-06-10T14:15:23;38.30;30.00
8882;DHT22;4477;48.736;9.176;2023-06-10T14:17:50;38.60;30.00
8882;DHT22;4477;48.736;9.176;2023-06-10T14:20:17;38.70;29.00
8882;DHT22;4477;48.736;9.176;2023-06-10T14:22:45;40.00;29.40
8882;DHT22;4477;48.736;9.176;2023-06-10T14:25:12;41.40;27.80
8882;DHT22;4477;48.736;9.176;2023-06-10T14:27:39;41.70;26.90
8882;DHT22;4477;48.736;9.176;2023-06-10T14:30:06;41.50;28.50
8882;DHT22;4477;48.736;9.176;2023-06-10T14:32:33;41.20;27.10
8882;DHT22;4477;48.736;9.176;2023-06-10T14:35:00;41.60;26.90
8882;DHT22;4477;48.736;9.176;2023-06-10T14:37:27;39.40;27.70
8882;DHT22;4477;48.736;9.176;2023-06-10T14:39:55;37.10;30.60
8882;DHT22;4477;48.736;9.176;2023-06-10T14:42:22;37.80;31.50
8882;DHT22;4477;48.736;9.176;2023-06-10T14:44:49;39.00;30.30
8882;DHT22;4477;48.736;9.176;2023-06-10T14:47:16;40.00;28.30
8882;DHT22;4477;48.736;9.176;2023-06-10T14:49:43;39.40;28.70
8882;DHT22;4477;48.736;9.176;2023-06-10T14:52:10;39.70;29.40
8882;DHT22;4477;48.736;9.176;2023-06-10T14:54:37;39.80;28.70
8882;DHT22;4477;48.736;9.176;2023-06-10T14:57:05;39.50;27.80
8882;DHT22;4477;48.736;9.176;2023-06-10T14:59:32;39.30;29.00
8882;DHT22;4477;48.736;9.176;2023-06-10T15:01:59;39.80;28.30
8882;DHT22;4477;48.736;9.176;2023-06-10T15:04:27;39.20;29.70
8882;DHT22;4477;48.736;9.176;2023-06-10T15:06:54;36.70;31.30
8882;DHT22;4477;48.736;9.176;2023-06-10T15:09:21;33.90;34.80
8882;DHT22;4477;48.736;9.176;2023-06-10T15:11:47;31.80;38.30
8882;DHT22;4477;48.736;9.176;2023-06-10T15:14:16;30.40;41.00
8882;DHT22;4477;48.736;9.176;2023-06-10T15:16:43;29.70;43.00
8882;DHT22;4477;48.736;9.176;2023-06-10T15:19:09;30.70;41.20
8882;DHT22;4477;48.736;9.176;2023-06-10T15:21:36;33.10;36.90
8882;DHT22;4477;48.736;9.176;2023-06-10T15:24:04;35.10;35.30
8882;DHT22;4477;48.736;9.176;2023-06-10T15:26:31;36.70;31.90
8882;DHT22;4477;48.736;9.176;2023-06-10T15:28:58;38.30;29.30
8882;DHT22;4477;48.736;9.176;2023-06-10T15:31:30;39.50;30.00
8882;DHT22;4477;48.736;9.176;2023-06-10T15:33:58;39.90;27.30
8882;DHT22;4477;48.736;9.176;2023-06-10T15:36:25;40.20;28.30
8882;DHT22;4477;48.736;9.176;2023-06-10T15:38:52;40.40;28.40
8882;DHT22;4477;48.736;9.176;2023-06-10T15:41:19;40.20;26.70
8882;DHT22;4477;48.736;9.176;2023-06-10T15:43:47;40.20;26.80
8882;DHT22;4477;48.736;9.176;2023-06-10T15:46:13;39.70;29.20
8882;DHT22;4477;48.736;9.176;2023-06-10T15:48:42;40.20;27.90
8882;DHT22;4477;48.736;9.176;2023-06-10T15:51:08;40.00;28.40
8882;DHT22;4477;48.736;9.176;2023-06-10T15:53:36;39.40;28.80
8882;DHT22;4477;48.736;9.176;2023-06-10T15:56:03;39.80;28.90
8882;DHT22;4477;48.736;9.176;2023-06-10T15:58:30;39.30;29.30
8882;DHT22;4477;48.736;9.176;2023-06-10T16:00:57;39.00;28.10
8882;DHT22;4477;48.736;9.176;2023-06-10T16:03:23;39.00;29.00
8882;DHT22;4477;48.736;9.176;2023-06-10T16:05:52;38.80;28.40
8882;DHT22;4477;48.736;9.176;2023-06-10T16:08:18;38.00;29.10
8882;DHT22;4477;48.736;9.176;2023-06-10T16:10:46;37.40;30.00
8882;DHT22;4477;48.736;9.176;2023-06-10T16:13:13;36.30;31.10
8882;DHT22;4477;48.736;9.176;2023-06-10T16:15:40;34.80;32.40
8882;DHT22;4477;48.736;9.176;2023-06-10T16:18:07;32.70;34.10
